First Clarity — A8RM8 — position and weather

sailwx.info

Track history (hours):
 
Tides and Currents Weather Stations Pressure Air Temp Water Temp Dewpoint Dewpoint Depression Visibility Wind Speed Wind Dir Waves Ship Positions

First Clarity

Last reported at 2016-Aug-26 18:08 UTC. Time now 2016-Aug-27 11:43 UTC.
Position N 34°29' E 138°31'.

Length 104 m; draft 5.8 m.

Type: Cargo ship. MMSI: 636014129.

Date/timePositionNaut miles runAvg speedWind from/ knotsBaromVisibWave heightAir tempDewpointWater temp
2016-Aug-26 18:08N 34°29' E 138°31'70 8.2
2016-Aug-26 09:33N 35°07' E 139°43'9 9.0
2016-Aug-26 08:33N 35°16' E 139°46'9 8.8
2016-Aug-26 07:33N 35°23' E 139°41'2 1.9
2016-Aug-26 06:32N 35°24' E 139°38'0 0.0
2016-Aug-26 04:32N 35°24' E 139°38'0 0.0
2016-Aug-26 03:32N 35°24' E 139°38'0 0.0
2016-Aug-26 02:32N 35°24' E 139°38'0 0.0
2016-Aug-26 01:32N 35°24' E 139°38'0 0.0
2016-Aug-26 00:32N 35°24' E 139°38'0 0.0
2016-Aug-25 23:32N 35°24' E 139°38'0 0.0
2016-Aug-25 22:32N 35°24' E 139°38'0 0.0
2016-Aug-25 21:32N 35°24' E 139°38'0 0.0
2016-Aug-25 20:32N 35°24' E 139°38'0 0.0
2016-Aug-25 19:32N 35°24' E 139°38'0 0.0
2016-Aug-25 18:32N 35°24' E 139°38'0 0.0
2016-Aug-25 17:32N 35°24' E 139°38'0 0.0
2016-Aug-25 16:32N 35°24' E 139°38'0 0.0
2016-Aug-25 15:32N 35°24' E 139°38'0 0.0
2016-Aug-25 14:32N 35°24' E 139°38'0 0.0
2016-Aug-25 13:32N 35°24' E 139°38'0 0.0
2016-Aug-25 12:32N 35°24' E 139°38'0 0.0
2016-Aug-25 11:32N 35°24' E 139°38'0 0.0
2016-Aug-25 10:32N 35°24' E 139°38'0 0.0
2016-Aug-25 09:32N 35°24' E 139°38'0 0.0
2016-Aug-25 08:32N 35°24' E 139°38'0 0.0
2016-Aug-25 07:32N 35°24' E 139°38'0 0.0
2016-Aug-25 06:32N 35°24' E 139°38'0 0.0
2016-Aug-25 04:32N 35°24' E 139°38'0 0.0
2016-Aug-25 03:32N 35°24' E 139°38'0 0.0
2016-Aug-25 02:32N 35°24' E 139°38'0 0.0
2016-Aug-25 01:32N 35°24' E 139°38'0 0.0
2016-Aug-25 00:32N 35°24' E 139°38'0 0.0
2016-Aug-24 23:29N 35°24' E 139°38'2 1.7
2016-Aug-24 22:34N 35°23' E 139°40'0 0.0
2016-Aug-24 21:30N 35°23' E 139°40'0 0.0
2016-Aug-24 20:32N 35°23' E 139°40'0 0.0
2016-Aug-24 19:33N 35°23' E 139°40'0 0.1
2016-Aug-24 18:33N 35°23' E 139°40'0 0.0
2016-Aug-24 17:32N 35°23' E 139°40'0 0.0
2016-Aug-24 16:33N 35°23' E 139°40'0 0.0
2016-Aug-24 15:32N 35°23' E 139°40'0 0.0
2016-Aug-24 14:32N 35°23' E 139°40'0 0.1
2016-Aug-24 13:29N 35°23' E 139°40'0 0.1
2016-Aug-24 12:33N 35°23' E 139°40'0 0.1
2016-Aug-24 11:33N 35°23' E 139°40'0 0.1
2016-Aug-24 10:33N 35°23' E 139°40'0 0.1
2016-Aug-24 09:32N 35°23' E 139°40'0 0.3
2016-Aug-24 08:33N 35°23' E 139°40'9 8.8
2016-Aug-24 07:33N 35°16' E 139°46'1010.3
2016-Aug-24 06:33N 35°06' E 139°46'7010.1
2016-Aug-23 23:33N 34°29' E 138°33'179 7.7
2016-Aug-23 00:30N 34°05' E 134°58'1011.0
2016-Aug-22 23:33N 34°15' E 134°58'1010.0
2016-Aug-22 22:32N 34°25' E 135°01'1010.6
2016-Aug-22 21:33N 34°35' E 135°03'  
Track history (hours):
 
Tides and Currents Weather Stations Pressure Air Temp Water Temp Dewpoint Dewpoint Depression Visibility Wind Speed Wind Dir Waves Ship Positions

First Clarity

Last reported at 2016-Aug-26 18:08 UTC. Time now 2016-Aug-27 11:43 UTC.
Position N 34°29' E 138°31'.

Length 104 m; draft 5.8 m.

Type: Cargo ship. MMSI: 636014129.

Date/timePositionNaut miles runAvg speedWind from/ knotsBaromVisibWave heightAir tempDewpointWater temp
2016-Aug-26 18:08N 34°29' E 138°31'70 8.2
2016-Aug-26 09:33N 35°07' E 139°43'9 9.0
2016-Aug-26 08:33N 35°16' E 139°46'9 8.8
2016-Aug-26 07:33N 35°23' E 139°41'2 1.9
2016-Aug-26 06:32N 35°24' E 139°38'0 0.0
2016-Aug-26 04:32N 35°24' E 139°38'0 0.0
2016-Aug-26 03:32N 35°24' E 139°38'0 0.0
2016-Aug-26 02:32N 35°24' E 139°38'0 0.0
2016-Aug-26 01:32N 35°24' E 139°38'0 0.0
2016-Aug-26 00:32N 35°24' E 139°38'0 0.0
2016-Aug-25 23:32N 35°24' E 139°38'0 0.0
2016-Aug-25 22:32N 35°24' E 139°38'0 0.0
2016-Aug-25 21:32N 35°24' E 139°38'0 0.0
2016-Aug-25 20:32N 35°24' E 139°38'0 0.0
2016-Aug-25 19:32N 35°24' E 139°38'0 0.0
2016-Aug-25 18:32N 35°24' E 139°38'0 0.0
2016-Aug-25 17:32N 35°24' E 139°38'0 0.0
2016-Aug-25 16:32N 35°24' E 139°38'0 0.0
2016-Aug-25 15:32N 35°24' E 139°38'0 0.0
2016-Aug-25 14:32N 35°24' E 139°38'0 0.0
2016-Aug-25 13:32N 35°24' E 139°38'0 0.0
2016-Aug-25 12:32N 35°24' E 139°38'0 0.0
2016-Aug-25 11:32N 35°24' E 139°38'0 0.0
2016-Aug-25 10:32N 35°24' E 139°38'0 0.0
2016-Aug-25 09:32N 35°24' E 139°38'0 0.0
2016-Aug-25 08:32N 35°24' E 139°38'0 0.0
2016-Aug-25 07:32N 35°24' E 139°38'0 0.0
2016-Aug-25 06:32N 35°24' E 139°38'0 0.0
2016-Aug-25 04:32N 35°24' E 139°38'0 0.0
2016-Aug-25 03:32N 35°24' E 139°38'0 0.0
2016-Aug-25 02:32N 35°24' E 139°38'0 0.0
2016-Aug-25 01:32N 35°24' E 139°38'0 0.0
2016-Aug-25 00:32N 35°24' E 139°38'0 0.0
2016-Aug-24 23:29N 35°24' E 139°38'2 1.7
2016-Aug-24 22:34N 35°23' E 139°40'0 0.0
2016-Aug-24 21:30N 35°23' E 139°40'0 0.0
2016-Aug-24 20:32N 35°23' E 139°40'0 0.0
2016-Aug-24 19:33N 35°23' E 139°40'0 0.1
2016-Aug-24 18:33N 35°23' E 139°40'0 0.0
2016-Aug-24 17:32N 35°23' E 139°40'0 0.0
2016-Aug-24 16:33N 35°23' E 139°40'0 0.0
2016-Aug-24 15:32N 35°23' E 139°40'0 0.0
2016-Aug-24 14:32N 35°23' E 139°40'0 0.1
2016-Aug-24 13:29N 35°23' E 139°40'0 0.1
2016-Aug-24 12:33N 35°23' E 139°40'0 0.1
2016-Aug-24 11:33N 35°23' E 139°40'0 0.1
2016-Aug-24 10:33N 35°23' E 139°40'0 0.1
2016-Aug-24 09:32N 35°23' E 139°40'0 0.3
2016-Aug-24 08:33N 35°23' E 139°40'9 8.8
2016-Aug-24 07:33N 35°16' E 139°46'1010.3
2016-Aug-24 06:33N 35°06' E 139°46'7010.1
2016-Aug-23 23:33N 34°29' E 138°33'179 7.7
2016-Aug-23 00:30N 34°05' E 134°58'1011.0
2016-Aug-22 23:33N 34°15' E 134°58'1010.0
2016-Aug-22 22:32N 34°25' E 135°01'1010.6
2016-Aug-22 21:33N 34°35' E 135°03'  

Dump ship's entire track history